• Join FlightAware (Why Join?)
  • Login
  • US Flag 
01:35AM EDT


 

Airport Tracker/Info


-or-


 

Live Flight TrackerFlight Track Log ✈ DAL268 ✈ 24-Aug-2013 ✈ KJFK - LLBG / TLV

Flight Track Log - Related Links

Times and Time Zones

All times are in EDT time to prevent confusion due to time zone crossing. See the DAL268 flight status page for this flight to view local times or setup timezone preferences in your user account.

Time Position Orientation Groundspeed Altitude Reporting Facility
EDT Latitude Longitude Course Direction KTS MPH feet Rate Location/Type
11:59PM 40.6330 -73.7800 120° Southeast  Level FlightAware
12:09AM 40.5421 -73.4929 114° Southeast  Level FlightAware Approximate
12:10AM 40.4865 -73.3261 114° Southeast  Level FlightAware Approximate
12:11AM 40.4384 -73.1563 119° Southeast  Level FlightAware Approximate
12:12AM 40.3833 -72.9903 90° East  Level FlightAware Approximate
12:13AM 40.4176 -72.8130 72° East  Level FlightAware Approximate
12:23AM 40.4930 -73.3456 114° Southeast  Level FlightAware Approximate
12:24AM 40.4464 -73.1749 119° Southeast  Level FlightAware Approximate
12:25AM 40.3833 -73.0116 90° East  Level FlightAware Approximate
12:26AM 40.4133 -72.8336 75° East  Level FlightAware Approximate
12:29AM 40.4889 -73.3333 114° Southeast  Level FlightAware Approximate
12:30AM 40.4414 -73.1632 119° Southeast  Level FlightAware Approximate
12:31AM 40.3833 -72.9982 90° East  Level FlightAware Approximate
12:32AM 40.4159 -72.8205 75° East  Level FlightAware Approximate
12:33AM 40.4478 -72.6566 66° East  Level FlightAware Approximate
12:34AM 40.4799 -72.4908 79° East  Level FlightAware Approximate
12:35AM 40.5167 -72.3304 90° East  Level FlightAware Approximate
12:36AM 40.5534 -72.1700 72° East  Level FlightAware Approximate
12:37AM 40.5933 -72.0103 72° East  Level FlightAware Approximate
12:38AM 40.6281 -71.8490 66° East  Level FlightAware Approximate
12:39AM 40.6685 -71.6893 78° East  Level FlightAware Approximate
12:40AM 40.6959 -71.5248 78° East  Level FlightAware Approximate
12:41AM 40.7297 -71.3623 74° East  Level FlightAware Approximate
12:42AM 40.7644 -71.2001 74° East  Level FlightAware Approximate
12:43AM 40.7990 -71.0376 74° East  Level FlightAware Approximate
12:44AM 40.8333 -70.8750 74° East  Level FlightAware Approximate
12:45AM 40.8673 -70.7123 74° East  Level FlightAware Approximate
12:46AM 40.9012 -70.5493 75° East  Level FlightAware Approximate
12:47AM 40.9348 -70.3862 75° East  Level FlightAware Approximate
12:48AM 40.9682 -70.2230 75° East  Level FlightAware Approximate
12:49AM 41.0013 -70.0595 75° East  Level FlightAware Approximate
12:50AM 41.0342 -69.8959 75° East  Level FlightAware Approximate
12:51AM 41.0672 -69.7324 53° Northeast  Level FlightAware Approximate
12:52AM 41.1445 -69.5974 53° Northeast  Level FlightAware Approximate
12:53AM 41.2223 -69.4627 52° Northeast  Level FlightAware Approximate
12:54AM 41.3015 -69.3295 52° Northeast  Level FlightAware Approximate
12:55AM 41.3807 -69.1959 52° Northeast  Level FlightAware Approximate
12:56AM 41.4596 -69.0620 52° Northeast  Level FlightAware Approximate
12:57AM 41.5373 -68.9266 53° Northeast  Level FlightAware Approximate
12:58AM 41.6149 -68.7909 52° Northeast  Level FlightAware Approximate
12:59AM 41.6928 -68.6554 52° Northeast  Level FlightAware Approximate
01:00AM 41.7705 -68.5195 52° Northeast  Level FlightAware Approximate
01:01AM 41.8481 -68.3834 53° Northeast  Level FlightAware Approximate
01:02AM 41.9255 -68.2469 53° Northeast  Level FlightAware Approximate
01:03AM 42.0028 -68.1100 53° Northeast  Level FlightAware Approximate
01:04AM 42.0798 -67.9729 53° Northeast  Level FlightAware Approximate
01:05AM 42.1568 -67.8354 53° Northeast  Level FlightAware Approximate
01:06AM 42.2307 -67.7027 53° Northeast  Level FlightAware Approximate
01:07AM 42.3045 -67.5696 53° Northeast  Level FlightAware Approximate
01:08AM 42.3781 -67.4362 53° Northeast  Level FlightAware Approximate
01:09AM 42.4516 -67.3026 53° Northeast  Level FlightAware Approximate
01:10AM 42.5249 -67.1686 53° Northeast  Level FlightAware Approximate
01:11AM 42.5980 -67.0343 53° Northeast  Level FlightAware Approximate
01:12AM 42.6691 -66.8978 55° Northeast  Level FlightAware Approximate
01:13AM 42.7394 -66.7604 55° Northeast  Level FlightAware Approximate
01:14AM 42.8095 -66.6227 55° Northeast  Level FlightAware Approximate
01:15AM 42.8794 -66.4846 55° Northeast  Level FlightAware Approximate
01:16AM 42.9492 -66.3463 55° Northeast  Level FlightAware Approximate
01:17AM 43.0188 -66.2076 55° Northeast  Level FlightAware Approximate
01:18AM 43.0883 -66.0686 56° Northeast  Level FlightAware Approximate
01:19AM 43.1575 -65.9293 56° Northeast  Level FlightAware Approximate
01:20AM 43.2266 -65.7897 56° Northeast  Level FlightAware Approximate
01:21AM 43.2956 -65.6498 56° Northeast  Level FlightAware Approximate
01:22AM 43.3643 -65.5095 56° Northeast  Level FlightAware Approximate
01:23AM 43.4329 -65.3690 56° Northeast  Level FlightAware Approximate
01:24AM 43.5013 -65.2281 56° Northeast  Level FlightAware Approximate
01:25AM 43.5696 -65.0869 56° Northeast  Level FlightAware Approximate
01:26AM 43.6377 -64.9454 56° Northeast  Level FlightAware Approximate
01:27AM 43.7057 -64.8037 56° Northeast  Level FlightAware Approximate
01:28AM 43.7740 -64.6620 56° Northeast  Level FlightAware Approximate
01:29AM 43.8421 -64.5201 56° Northeast  Level FlightAware Approximate
01:30AM 43.9101 -64.3778 56° Northeast  Level FlightAware Approximate
01:31AM 43.9754 -64.2402 57° Northeast  Level FlightAware Approximate
01:31AM 40.6270 -73.7830 57° Northeast  Level FlightAware
01:32AM 44.0505 -64.0813 57° Northeast  Level FlightAware Approximate
01:33AM 44.1255 -63.9220 57° Northeast  Level FlightAware Approximate
01:33AM 40.6270 -73.7840 270° West  Level FlightAware
01:40AM 40.5055 -73.3944 123° Southeast  Level FlightAware Approximate
01:41AM 40.4592 -73.2292 105° East  Level FlightAware Approximate
01:42AM 40.4006 -73.0680 119° Southeast  Level FlightAware Approximate
01:43AM 40.4006 -72.8969 75° East  Level FlightAware Approximate
01:49AM 40.6220 -73.7900 301° West 125 144  Level FlightAware
01:49AM 40.6290 -73.8070 298° West 175 201 240 Level FlightAware
01:50AM 40.6340 -73.8180 301° West 184 212 600 Level FlightAware
01:50AM 40.6380 -73.8260 303° West 182 209 200 1,500 Climbing FlightAware
01:50AM 40.6390 -73.8350 278° West 183 211 400 1,500 Climbing FlightAware
01:50AM 40.6320 -73.8560 246° West 191 220 900 1,500 Climbing FlightAware
01:50AM 40.6190 -73.8710 221° Southwest 195 224 1,400 1,500 Climbing FlightAware
01:51AM 40.6000 -73.8870 213° Southwest 200 230 2,000 1,320 Climbing FlightAware
01:51AM 40.5890 -73.8910 195° South 205 236 2,200 1,140 Climbing FlightAware
01:52AM 40.5643 -73.8777 158° South 208 239 2,800 1,200 Climbing FlightAware ADS-B
01:52AM 40.5615 -73.8713 120° Southeast 208 239 2,900 660 Climbing FlightAware ADS-B
01:52AM 40.5605 -73.8676 110° East 209 241 2,900 960 Level FlightAware ADS-B
01:52AM 40.5597 -73.8636 105° East 211 243 3,000 1,080 Climbing FlightAware ADS-B
01:52AM 40.5593 -73.8542 93° East 212 244 3,100 780 Climbing FlightAware ADS-B
01:52AM 40.5604 -73.8447 81° East 217 250 3,200 720 Climbing FlightAware ADS-B
01:52AM 40.5643 -73.8199 78° East 229 264 3,400 840 Climbing FlightAware ADS-B
01:53AM 40.5720 -73.7780 76° East 251 289 3,900 1,020 Climbing FlightAware
01:53AM 40.5780 -73.7550 71° East 261 300 4,200 960 Climbing FlightAware
01:53AM 40.5840 -73.7440 54° Northeast 268 308 4,300 1,200 Climbing FlightAware
01:53AM 40.5930 -73.7290 52° Northeast 275 316 4,600 1,500 Climbing FlightAware
01:54AM 40.6110 -73.7050 45° Northeast 290 334 5,100 1,860 Climbing FlightAware
01:54AM 40.6390 -73.6810 33° Northeast 291 335 6,000 2,400 Climbing FlightAware
01:54AM 40.6523 -73.6704 31° Northeast 291 335 6,500 2,340 Climbing FlightAware ADS-B
01:55AM 40.6899 -73.6419 30° Northeast 296 341 7,700 2,220 Climbing FlightAware ADS-B
01:55AM 40.7093 -73.6277 29° Northeast 298 343 8,300 2,100 Climbing FlightAware ADS-B
01:55AM 40.7313 -73.6118 29° Northeast 299 344 8,900 2,100 Climbing FlightAware ADS-B
01:56AM 40.7553 -73.5942 29° Northeast 302 348 9,600 1,680 Climbing FlightAware ADS-B
01:56AM 40.8025 -73.5597 29° Northeast 324 373 10,500 1,260 Climbing FlightAware ADS-B
01:57AM 40.8540 -73.5230 28° Northeast 350 403 11,200 1,140 Climbing FlightAware
01:57AM 40.8743 -73.5073 30° Northeast 360 414 11,500 1,200 Climbing FlightAware ADS-B
01:58AM 40.9527 -73.4490 29° Northeast 395 455 12,500 1,440 Climbing FlightAware ADS-B
01:59AM 41.0130 -73.4060 28° Northeast 404 465 13,700 2,040 Climbing FlightAware
01:59AM 41.0578 -73.3730 29° Northeast 401 461 14,700 2,100 Climbing FlightAware ADS-B
02:00AM 41.1111 -73.3341 29° Northeast 410 472 15,700 2,040 Climbing FlightAware ADS-B
02:00AM 41.1272 -73.3216 30° Northeast 418 481 16,100 2,280 Climbing FlightAware ADS-B
02:00AM 41.1726 -73.2733 39° Northeast 424 488 17,200 1,860 Climbing FlightAware ADS-B
02:01AM 41.2260 -73.1810 52° Northeast 435 501 18,500 1,680 Climbing FlightAware
02:02AM 41.2710 -73.1090 50° Northeast 442 509 19,500 1,740 Climbing FlightAware
02:02AM 41.3180 -73.0310 51° Northeast 445 512 20,600 1,680 Climbing FlightAware
02:03AM 41.3620 -72.9620 50° Northeast 449 517 21,500 1,680 Climbing FlightAware
02:03AM 41.4132 -72.8785 51° Northeast 453 521 22,600 1,620 Climbing FlightAware ADS-B
02:04AM 41.4570 -72.8080 50° Northeast 457 526 23,400 1,440 Climbing FlightAware
02:05AM 41.5060 -72.7270 51° Northeast 462 532 24,300 1,260 Climbing FlightAware
02:05AM 41.5682 -72.6259 51° Northeast 470 541 25,200 1,200 Climbing FlightAware ADS-B
02:06AM 41.6100 -72.5577 51° Northeast 474 545 25,800 1,140 Climbing FlightAware ADS-B
02:06AM 41.6600 -72.4760 51° Northeast 477 549 26,500 1,080 Climbing FlightAware
02:07AM 41.7080 -72.3990 50° Northeast 483 556 27,100 1,200 Climbing FlightAware
02:08AM 41.7610 -72.3130 50° Northeast 484 557 27,900 1,380 Climbing FlightAware
02:08AM 41.8060 -72.2380 51° Northeast 480 552 28,700 1,440 Climbing FlightAware
02:09AM 41.8570 -72.1540 51° Northeast 477 549 29,600 1,500 Climbing FlightAware
02:09AM 41.9060 -72.0740 51° Northeast 474 545 30,500 1,140 Climbing FlightAware
02:10AM 41.9570 -71.9910 50° Northeast 471 542 31,000 420 Climbing FlightAware
02:10AM 42.0000 -71.9180 52° Northeast 471 542 31,000  Level FlightAware
02:11AM 42.0490 -71.8360 51° Northeast 472 543 31,000  Level FlightAware
02:12AM 42.0990 -71.7540 51° Northeast 473 544 31,000  Level FlightAware
02:12AM 42.1480 -71.6710 51° Northeast 475 547 31,000  Level FlightAware
02:13AM 42.1930 -71.5960 51° Northeast 476 548 31,000  Level FlightAware
02:13AM 42.2420 -71.5130 51° Northeast 476 548 31,000  Level FlightAware
02:14AM 42.2920 -71.4290 51° Northeast 476 548 31,000  Level FlightAware
02:15AM 42.3400 -71.3480 51° Northeast 476 548 31,000  Level FlightAware
02:15AM 42.3740 -71.2900 52° Northeast 477 549 31,000  Level FlightAware
02:16AM 42.4220 -71.2090 51° Northeast 477 549 31,000  Level FlightAware
02:16AM 42.4720 -71.1220 52° Northeast 477 549 31,000  Level FlightAware
02:17AM 42.5230 -71.0360 51° Northeast 477 549 31,000  Level FlightAware
02:17AM 42.5720 -70.9510 52° Northeast 478 550 31,000  Level FlightAware
02:18AM 42.6140 -70.8770 52° Northeast 480 552 31,000  Level FlightAware
02:19AM 42.6650 -70.7900 51° Northeast 480 552 31,000  Level FlightAware
02:19AM 42.7110 -70.7100 52° Northeast 480 552 31,000  Level FlightAware
02:20AM 42.7610 -70.6230 52° Northeast 480 552 31,000  Level FlightAware
02:20AM 42.8100 -70.5370 52° Northeast 479 551 31,000  Level FlightAware
02:21AM 42.8590 -70.4530 51° Northeast 480 552 31,000  Level FlightAware
02:21AM 42.9030 -70.3760 52° Northeast 480 552 31,000  Level FlightAware
02:22AM 42.9520 -70.2910 52° Northeast 479 551 31,000  Level FlightAware
02:23AM 42.9990 -70.2070 53° Northeast 475 547 31,000  Level FlightAware
02:23AM 43.0480 -70.1210 52° Northeast 476 548 31,000  Level FlightAware
02:24AM 43.1010 -70.0280 52° Northeast 482 555 31,000  Level FlightAware
02:24AM 43.1490 -69.9440 52° Northeast 482 555 31,000  Level FlightAware
02:25AM 43.1980 -69.8560 53° Northeast 482 555 31,000  Level FlightAware
02:26AM 43.2510 -69.7620 52° Northeast 482 555 31,000  Level FlightAware
02:26AM 43.3080 -69.6590 53° Northeast 481 554 31,000  Level FlightAware
02:27AM 43.3590 -69.5670 53° Northeast 481 554 31,000  Level FlightAware
02:28AM 43.4040 -69.4870 52° Northeast 482 555 31,000  Level FlightAware
02:28AM 43.4480 -69.4070 53° Northeast 482 555 31,000  Level FlightAware
02:29AM 43.5040 -69.3080 52° Northeast 481 554 31,000  Level FlightAware
02:30AM 43.5460 -69.2340 52° Northeast 481 554 31,000  Level FlightAware
02:30AM 43.6060 -69.1200 54° Northeast 480 552 31,000  Level FlightAware
02:31AM 43.6500 -69.0410 52° Northeast 482 555 31,000  Level FlightAware
02:32AM 43.7170 -68.9170 53° Northeast 482 555 31,000  Level FlightAware
02:32AM 43.7580 -68.8420 53° Northeast 482 555 31,000  Level FlightAware
02:33AM 43.7990 -68.7660 53° Northeast 482 555 31,000  Level FlightAware
02:33AM 43.8400 -68.6900 53° Northeast 482 555 31,000  Level FlightAware
02:34AM 43.8820 -68.6150 52° Northeast 482 555 31,000  Level FlightAware
02:35AM 43.9590 -68.4690 54° Northeast 481 554 31,000  Level FlightAware
02:35AM 44.0060 -68.3810 53° Northeast 481 554 31,000  Level FlightAware
02:36AM 44.0530 -68.2940 53° Northeast 480 552 31,000  Level FlightAware
02:36AM 44.1010 -68.2030 54° Northeast 481 554 31,000  Level FlightAware
02:37AM 44.1490 -68.1130 53° Northeast 482 555 31,000  Level FlightAware
02:37AM 44.1920 -68.0320 53° Northeast 482 555 31,000  Level FlightAware
02:38AM 44.2400 -67.9420 53° Northeast 483 556 31,000  Level FlightAware
02:39AM 44.2900 -67.8470 54° Northeast 483 556 31,000  Level FlightAware
02:39AM 44.3380 -67.7570 53° Northeast 482 555 31,000  Level FlightAware
02:40AM 44.3800 -67.6760 54° Northeast 482 555 31,000  Level FlightAware
02:40AM 44.4280 -67.5850 54° Northeast 482 555 31,000  Level FlightAware
02:41AM 44.4730 -67.4990 54° Northeast 482 555 31,000  Level FlightAware
02:42AM 44.5190 -67.4090 54° Northeast 482 555 31,000  Level FlightAware
02:42AM 44.5650 -67.3210 54° Northeast 482 555 31,000  Level FlightAware
02:43AM 44.6110 -67.2310 54° Northeast 482 555 31,000  Level FlightAware
02:43AM 44.6530 -67.1490 54° Northeast 482 555 31,000  Level FlightAware
02:44AM 44.7010 -67.0570 54° Northeast 482 555 31,000  Level FlightAware
02:44AM 44.7460 -66.9690 54° Northeast 482 555 31,000  Level FlightAware
02:45AM 44.7850 -66.8930 54° Northeast 481 554 31,000  Level FlightAware
02:46AM 44.8320 -66.8000 55° Northeast 482 555 31,000  Level FlightAware
02:46AM 44.8830 -66.6990 55° Northeast 477 549 31,000  Level FlightAware
02:47AM 44.9340 -66.5990 54° Northeast 477 549 31,000  Level FlightAware
02:47AM 44.9800 -66.5100 54° Northeast 476 548 31,000  Level FlightAware
02:48AM 45.0240 -66.4210 55° Northeast 475 547 31,000  Level FlightAware
02:49AM 45.0710 -66.3290 54° Northeast 480 552 31,000  Level FlightAware
02:49AM 45.1160 -66.2400 54° Northeast 481 554 31,000  Level FlightAware
02:50AM 45.1620 -66.1450 55° Northeast 483 556 31,000  Level FlightAware
02:50AM 45.2060 -66.0580 54° Northeast 483 556 31,000  Level FlightAware
02:51AM 45.2510 -65.9650 55° Northeast 485 558 31,000  Level FlightAware
02:52AM 45.2950 -65.8750 55° Northeast 486 559 31,000  Level FlightAware
02:52AM 45.3410 -65.7820 55° Northeast 487 560 31,000  Level FlightAware
02:53AM 45.3850 -65.6920 55° Northeast 488 562 31,000  Level FlightAware
02:53AM 45.4310 -65.5970 55° Northeast 485 558 31,000  Level FlightAware
02:54AM 45.4760 -65.5050 55° Northeast 486 559 31,000  Level FlightAware
02:55AM 45.5200 -65.4110 56° Northeast 486 559 31,000  Level FlightAware
02:55AM 45.5590 -65.3300 55° Northeast 486 559 31,000  Level FlightAware
02:56AM 45.5970 -65.2490 56° Northeast 486 559 31,000  Level FlightAware
02:56AM 45.6360 -65.1670 56° Northeast 486 559 31,000  Level FlightAware
02:57AM 45.6750 -65.0830 56° Northeast 486 559 31,000  Level FlightAware
02:58AM 45.7150 -64.9990 56° Northeast 486 559 31,000  Level FlightAware
02:58AM 45.7530 -64.9170 56° Northeast 486 559 31,000  Level FlightAware
02:59AM 45.7920 -64.8360 55° Northeast 486 559 31,000  Level FlightAware
02:59AM 45.8300 -64.7540 56° Northeast 486 559 31,000  Level FlightAware
03:00AM 45.8690 -64.6720 56° Northeast 486 559 31,000  Level FlightAware
03:01AM 45.9070 -64.5900 56° Northeast 486 559 31,000  Level FlightAware
03:01AM 45.9460 -64.5080 56° Northeast 486 559 31,000  Level FlightAware
03:02AM 45.9840 -64.4260 56° Northeast 486 559 31,000  Level FlightAware
03:02AM 46.0240 -64.3410 56° Northeast 486 559 31,000  Level FlightAware
03:03AM 46.0620 -64.2590 56° Northeast 486 559 31,000  Level FlightAware
03:04AM 46.1010 -64.1770 56° Northeast 486 559 31,000 300 Level FlightAware
03:09AM 46.6390 -63.0040 56° Northeast 512 589 33,000 300 Climbing FlightAware
03:09AM 46.6780 -62.9160 57° Northeast 514 592 33,000  Level FlightAware
03:10AM 46.7290 -62.8000 57° Northeast 515 593 33,000  Level FlightAware
03:11AM 46.7810 -62.6810 57° Northeast 515 593 33,000  Level FlightAware
03:11AM 46.8210 -62.5910 57° Northeast 515 593 33,000  Level FlightAware
03:12AM 46.8740 -62.4640 59° Northeast 518 596 33,000  Level FlightAware
03:13AM 46.9220 -62.3560 57° Northeast 519 597 33,000  Level FlightAware
03:13AM 46.9630 -62.2630 57° Northeast 519 597 33,000  Level FlightAware
03:14AM 47.0170 -62.1390 57° Northeast 523 602 33,000  Level FlightAware
03:14AM 47.0630 -62.0340 57° Northeast 526 605 33,000  Level FlightAware
03:15AM 47.1040 -61.9400 57° Northeast 526 605 33,000  Level FlightAware
03:15AM 47.1530 -61.8240 58° Northeast 532 612 33,000  Level FlightAware
03:16AM 47.1940 -61.7260 58° Northeast 533 613 33,000  Level FlightAware
03:17AM 47.2450 -61.6040 58° Northeast 537 618 33,000  Level FlightAware
03:17AM 47.2820 -61.5180 58° Northeast 538 619 33,000  Level FlightAware
03:18AM 47.3350 -61.3900 59° Northeast 541 623 33,000  Level FlightAware
03:18AM 47.3820 -61.2770 58° Northeast 544 626 33,000  Level FlightAware
03:19AM 47.4300 -61.1600 59° Northeast 547 629 33,000  Level FlightAware
03:20AM 47.4720 -61.0580 59° Northeast 549 632 33,000  Level FlightAware
03:20AM 47.5160 -60.9550 58° Northeast 549 632 33,000  Level FlightAware
03:21AM 47.5570 -60.8580 58° Northeast 549 632 33,000  Level FlightAware
03:21AM 47.5980 -60.7600 58° Northeast 549 632 33,000  Level FlightAware
03:22AM 47.6390 -60.6620 58° Northeast 549 632 33,000  Level FlightAware
03:23AM 47.6800 -60.5640 58° Northeast 549 632 33,000  Level FlightAware
03:23AM 47.7220 -60.4660 57° Northeast 549 632 33,000  Level FlightAware
03:24AM 47.7640 -60.3660 58° Northeast 549 632 33,000  Level FlightAware
03:24AM 47.8030 -60.2730 58° Northeast 549 632 33,000  Level FlightAware
03:25AM 47.8440 -60.1750 58° Northeast 549 632 33,000  Level FlightAware
03:26AM 47.8850 -60.0770 58° Northeast 549 632 33,000  Level FlightAware
03:26AM 47.9950 -59.7560 63° Northeast 568 654 33,000  Level FlightAware
03:27AM 48.0430 -59.6340 59° Northeast 566 651 33,000  Level FlightAware
03:27AM 48.0960 -59.4980 60° Northeast 566 651 33,000  Level FlightAware
03:28AM 48.1350 -59.3970 60° Northeast 566 651 33,000  Level FlightAware
03:29AM 48.1810 -59.2790 60° Northeast 568 654 33,000  Level FlightAware
03:29AM 48.2340 -59.1390 60° Northeast 567 652 33,000  Level FlightAware
03:30AM 48.2720 -59.0370 61° Northeast 567 652 33,000  Level FlightAware
03:30AM 48.3150 -58.9240 60° Northeast 569 655 33,000 60 Level FlightAware
03:31AM 48.3610 -58.8020 60° Northeast 567 652 33,100 60 Climbing FlightAware
03:32AM 48.4150 -58.6590 60° Northeast 576 663 33,100  Level FlightAware
03:32AM 48.4550 -58.5520 61° Northeast 577 664 33,100 -240 Level FlightAware
03:33AM 48.5000 -58.4300 61° Northeast 576 663 32,900 -660 Descending FlightAware
03:33AM 48.5440 -58.3100 61° Northeast 558 642 32,400 -1,380 Descending FlightAware
03:34AM 48.5940 -58.1740 61° Northeast 537 618 31,200 -1,200 Descending FlightAware
03:34AM 48.6300 -58.0770 61° Northeast 519 597 31,000 -240 Descending FlightAware
03:35AM 48.6690 -57.9700 61° Northeast 517 595 31,000  Level FlightAware
03:36AM 48.7170 -57.8400 61° Northeast 519 597 31,000  Level FlightAware
03:36AM 48.7510 -57.7460 61° Northeast 521 600 31,000  Level FlightAware
03:37AM 48.7920 -57.6320 61° Northeast 522 601 31,000  Level FlightAware
03:37AM 48.8320 -57.5240 61° Northeast 524 603 31,000  Level FlightAware
03:38AM 48.8780 -57.3940 62° Northeast 524 603 31,000  Level FlightAware
03:38AM 48.9120 -57.2920 63° Northeast 525 604 31,000  Level FlightAware
03:39AM 48.9490 -57.1770 64° Northeast 528 608 31,000  Level FlightAware
03:40AM 48.9930 -57.0410 64° Northeast 531 611 31,000 60 Level FlightAware
03:40AM 49.0260 -56.9400 63° Northeast 534 615 31,100 780 Climbing FlightAware
03:41AM 49.0700 -56.8060 63° Northeast 535 616 31,900 1,080 Climbing FlightAware
03:41AM 49.1070 -56.6900 64° Northeast 538 619 32,400 780 Climbing FlightAware
03:42AM 49.1420 -56.5830 63° Northeast 541 623 32,800 600 Climbing FlightAware
03:43AM 49.1790 -56.4660 64° Northeast 551 634 33,100 120 Climbing FlightAware
03:43AM 49.2240 -56.3250 64° Northeast 552 635 33,000 -120 Descending FlightAware
03:44AM 49.2570 -56.2200 64° Northeast 552 635 33,000  Level FlightAware
03:44AM 49.2950 -56.0990 64° Northeast 552 635 33,000  Level FlightAware
03:45AM 49.3350 -55.9700 65° Northeast 551 634 33,000  Level FlightAware
03:45AM 49.3730 -55.8480 64° Northeast 551 634 33,000  Level FlightAware
03:46AM 49.4100 -55.7260 65° Northeast 550 633 33,000  Level FlightAware
03:47AM 49.4480 -55.6040 64° Northeast 548 631 33,000  Level FlightAware
03:47AM 49.4920 -55.4610 65° Northeast 545 627 33,000  Level FlightAware
03:48AM 49.5240 -55.3540 65° Northeast 544 626 33,000  Level FlightAware
03:48AM 49.5610 -55.2330 65° Northeast 542 624 33,000  Level FlightAware
03:49AM 49.5980 -55.1100 65° Northeast 541 623 33,000  Level FlightAware
03:50AM 49.6400 -54.9720 65° Northeast 540 621 33,000  Level FlightAware
03:50AM 49.6720 -54.8680 65° Northeast 539 620 33,000  Level FlightAware
03:51AM 49.7090 -54.7440 65° Northeast 540 621 33,000  Level FlightAware
03:51AM 49.7460 -54.6190 65° Northeast 546 628 33,000  Level FlightAware
03:52AM 49.7880 -54.4780 65° Northeast 547 629 33,000  Level FlightAware
03:52AM 49.8190 -54.3710 66° East 549 632 33,000  Level FlightAware
03:53AM 49.8600 -54.2320 65° Northeast 550 633 33,000  Level FlightAware
03:54AM 51.0000 -50.0000 68° East 554 638 33,000  Level ETMS Enhanced Traffic Management System
03:54AM 49.8970 -54.1040 66° East 549 632 33,000  Level FlightAware
03:54AM 49.9290 -53.9940 66° East 548 631 33,000  Level FlightAware
03:55AM 49.9630 -53.8750 66° East 547 629 33,000  Level FlightAware
03:55AM 50.0050 -53.7270 66° East 548 631 33,000  Level FlightAware
03:56AM 50.0400 -53.6010 67° East 547 629 33,000  Level FlightAware
03:57AM 50.0710 -53.4920 66° East 547 629 33,000  Level FlightAware
03:57AM 50.1050 -53.3700 66° East 546 628 33,000  Level FlightAware
03:58AM 50.1400 -53.2430 67° East 546 628 33,000  Level FlightAware
03:58AM 50.1770 -53.1120 66° East 546 628 33,000  Level FlightAware
03:59AM 50.2070 -53.0010 68° East 547 629 33,000  Level FlightAware
03:59AM 50.2460 -52.8590 67° East 546 628 33,000  Level FlightAware
04:00AM 50.2820 -52.7280 67° East 546 628 33,000  Level FlightAware
04:01AM 50.3200 -52.5900 67° East 545 627 33,000  Level FlightAware
04:01AM 50.3470 -52.4920 67° East 545 627 33,000  Level FlightAware
04:02AM 50.3990 -52.2990 67° East 544 626 33,000  Level FlightAware
04:03AM 50.4440 -52.1290 67° East 543 625 33,000  Level FlightAware
04:04AM 50.4740 -52.0180 67° East 543 625 33,000  Level FlightAware
04:04AM 50.5050 -51.9030 67° East 543 625 33,000  Level FlightAware
04:05AM 50.5350 -51.7920 67° East 543 625 33,000  Level FlightAware
04:05AM 50.5650 -51.6810 67° East 543 625 33,000  Level FlightAware
04:06AM 50.5950 -51.5690 67° East 543 625 33,000  Level FlightAware
04:07AM 50.6350 -51.4210 67° East 543 625 33,000  Level FlightAware
04:07AM 50.6650 -51.3090 67° East 543 625 33,000  Level FlightAware
04:08AM 50.6950 -51.1970 67° East 543 625 33,000  Level FlightAware
04:09AM 50.7250 -51.0860 67° East 543 625 33,000  Level FlightAware
04:09AM 50.7550 -50.9740 67° East 543 625 33,000  Level FlightAware
04:10AM 50.7850 -50.8620 67° East 543 625 33,000  Level FlightAware
04:10AM 50.8150 -50.7500 67° East 543 625 33,000  Level FlightAware
04:11AM 50.8460 -50.6350 67° East 543 625 33,000  Level FlightAware
04:12AM 50.8760 -50.5230 67° East 543 625 33,000  Level FlightAware
04:12AM 50.9060 -50.4100 67° East 543 625 33,000  Level FlightAware
04:13AM 51.0000 -50.0000 68° East 567 652 33,000  Level ETMS Enhanced Traffic Management System
04:14AM 51.0667 -49.6500 68° East 550 633 33,000  Level Gander Center
04:15AM 51.1167 -49.4167 71° East 560 644 33,000  Level Gander Center
04:16AM 51.1667 -49.1833 71° East 560 644 33,000  Level Gander Center
04:18AM 51.2869 -48.7850 69° East  Level FlightAware Approximate
04:25AM 51.6362 -47.2835 70° East  Level FlightAware Approximate
04:26AM 51.6844 -47.0671 70° East  Level FlightAware Approximate
04:27AM 51.7323 -46.8502 70° East  Level FlightAware Approximate
04:28AM 51.7797 -46.6329 71° East  Level FlightAware Approximate
04:29AM 51.8267 -46.4151 71° East  Level FlightAware Approximate
04:30AM 51.8733 -46.1968 71° East  Level FlightAware Approximate
04:31AM 51.9195 -45.9781 71° East  Level FlightAware Approximate
04:32AM 51.9653 -45.7590 71° East  Level FlightAware Approximate
04:33AM 52.0107 -45.5394 71° East  Level FlightAware Approximate
04:34AM 52.0557 -45.3193 72° East  Level FlightAware Approximate
04:35AM 52.1002 -45.0988 73° East  Level FlightAware Approximate
04:36AM 52.1428 -44.8771 73° East  Level FlightAware Approximate
04:37AM 52.1849 -44.6549 73° East  Level FlightAware Approximate
04:38AM 52.2266 -44.4323 73° East  Level FlightAware Approximate
04:39AM 52.2679 -44.2093 73° East  Level FlightAware Approximate
04:40AM 52.3087 -43.9858 73° East  Level FlightAware Approximate
04:41AM 52.3506 -43.7627 72° East  Level FlightAware Approximate
04:42AM 52.3941 -43.5402 72° East  Level FlightAware Approximate
04:43AM 52.4373 -43.3173 72° East  Level FlightAware Approximate
04:44AM 52.4800 -43.0939 72° East  Level FlightAware Approximate
04:45AM 52.5221 -42.8700 73° East  Level FlightAware Approximate
04:46AM 52.5625 -42.6450 73° East  Level FlightAware Approximate
04:47AM 52.6024 -42.4197 74° East  Level FlightAware Approximate
04:48AM 52.6419 -42.1939 74° East  Level FlightAware Approximate
04:49AM 52.6810 -41.9677 74° East  Level FlightAware Approximate
04:50AM 52.7196 -41.7411 74° East  Level FlightAware Approximate
04:51AM 52.7578 -41.5141 74° East  Level FlightAware Approximate
04:52AM 52.7956 -41.2867 75° East  Level FlightAware Approximate
04:53AM 52.8329 -41.0589 75° East  Level FlightAware Approximate
04:54AM 52.8699 -40.8307 75° East  Level FlightAware Approximate
04:54AM 53.0000 -40.0000 67° East 558 642 33,000  Level ETMS Enhanced Traffic Management System
04:55AM 52.9064 -40.6017 75° East  Level FlightAware Approximate
04:56AM 52.9425 -40.3724 75° East  Level FlightAware Approximate
04:57AM 52.9781 -40.1427 75° East  Level FlightAware Approximate
04:58AM 53.0202 -39.9168 68° East  Level FlightAware Approximate
04:59AM 53.0732 -39.6964 68° East  Level FlightAware Approximate
05:00AM 53.4653 -38.0788 69° East 558 642 33,000  Level FlightAware Transoceanic
05:01AM 53.5212 -37.8358 69° East 558 642 33,000  Level FlightAware Transoceanic
05:02AM 53.5767 -37.5920 69° East 558 642 33,000  Level FlightAware Transoceanic
05:03AM 53.6317 -37.3477 69° East 558 642 33,000  Level FlightAware Transoceanic
05:04AM 53.6862 -37.1027 70° East 558 642 33,000  Level FlightAware Transoceanic
05:05AM 53.7401 -36.8571 70° East 558 642 33,000  Level FlightAware Transoceanic
05:06AM 53.7936 -36.6109 70° East 558 642 33,000  Level FlightAware Transoceanic
05:07AM 53.8466 -36.3640 70° East 558 642 33,000  Level FlightAware Transoceanic
05:08AM 53.8990 -36.1165 70° East 558 642 33,000  Level FlightAware Transoceanic
05:09AM 53.9510 -35.8684 71° East 558 642 33,000  Level FlightAware Transoceanic
05:10AM 54.0024 -35.6197 71° East 558 642 33,000  Level FlightAware Transoceanic
05:11AM 54.0533 -35.3704 71° East 558 642 33,000  Level FlightAware Transoceanic
05:12AM 54.1037 -35.1204 71° East 558 642 33,000  Level FlightAware Transoceanic
05:13AM 54.1536 -34.8699 71° East 558 642 33,000  Level FlightAware Transoceanic
05:14AM 54.2030 -34.6187 72° East 558 642 33,000  Level FlightAware Transoceanic
05:15AM 54.2519 -34.3670 72° East 558 642 33,000  Level FlightAware Transoceanic
05:16AM 54.3002 -34.1146 72° East 558 642 33,000  Level FlightAware Transoceanic
05:17AM 54.3479 -33.8617 72° East 558 642 33,000  Level FlightAware Transoceanic
05:18AM 54.3952 -33.6082 72° East 558 642 33,000  Level FlightAware Transoceanic
05:19AM 54.4419 -33.3541 73° East 558 642 33,000  Level FlightAware Transoceanic
05:20AM 54.4881 -33.0994 73° East 558 642 33,000  Level FlightAware Transoceanic
05:21AM 54.5338 -32.8442 73° East 558 642 33,000  Level FlightAware Transoceanic
05:22AM 54.5789 -32.5884 73° East 558 642 33,000  Level FlightAware Transoceanic
05:23AM 54.6235 -32.3320 73° East 558 642 33,000  Level FlightAware Transoceanic
05:24AM 54.6675 -32.0750 74° East 558 642 33,000  Level FlightAware Transoceanic
05:25AM 54.7110 -31.8176 74° East 558 642 33,000  Level FlightAware Transoceanic
05:26AM 54.7539 -31.5595 74° East 558 642 33,000  Level FlightAware Transoceanic
05:27AM 54.7963 -31.3009 74° East 558 642 33,000  Level FlightAware Transoceanic
05:28AM 54.8382 -31.0418 74° East 558 642 33,000  Level FlightAware Transoceanic
05:29AM 54.8795 -30.7821 75° East 558 642 33,000  Level FlightAware Transoceanic
05:30AM 54.9202 -30.5219 75° East 558 642 33,000  Level FlightAware Transoceanic
05:31AM 54.9604 -30.2612 75° East 558 642 33,000  Level FlightAware Transoceanic
05:32AM 54.9968 -30.0209 75° East  Level FlightAware Approximate
05:33AM 55.0328 -29.7802 75° East  Level FlightAware Approximate
05:34AM 54.9882 -29.7956 96° East  Level FlightAware Approximate
05:35AM 54.9734 -29.5484 96° East  Level FlightAware Approximate
05:36AM 54.9581 -29.3013 96° East  Level FlightAware Approximate
05:36AM 55.0000 -30.0000 96° East 529 609 33,000  Level ETMS Enhanced Traffic Management System
05:37AM 54.9424 -29.0544 96° East  Level FlightAware Approximate
05:38AM 54.9261 -28.8078 96° East  Level FlightAware Approximate
05:39AM 54.9094 -28.5613 97° East  Level FlightAware Approximate
05:40AM 54.8921 -28.3150 97° East  Level FlightAware Approximate
05:41AM 54.8743 -28.0690 97° East  Level FlightAware Approximate
05:42AM 54.8279 -27.4569 98° East 529 609 33,000  Level FlightAware Transoceanic
05:43AM 54.8078 -27.2039 98° East 529 609 33,000  Level FlightAware Transoceanic
05:44AM 54.7872 -26.9511 98° East 529 609 33,000  Level FlightAware Transoceanic
05:45AM 54.7660 -26.6985 98° East 529 609 33,000  Level FlightAware Transoceanic
05:46AM 54.7443 -26.4463 99° East 529 609 33,000  Level FlightAware Transoceanic
05:47AM 54.7221 -26.1943 99° East 529 609 33,000  Level FlightAware Transoceanic
05:48AM 54.6993 -25.9426 99° East 529 609 33,000  Level FlightAware Transoceanic
05:49AM 54.6761 -25.6912 99° East 529 609 33,000  Level FlightAware Transoceanic
05:50AM 54.6523 -25.4400 99° East 529 609 33,000  Level FlightAware Transoceanic
05:51AM 54.6280 -25.1892 100° East 529 609 33,000  Level FlightAware Transoceanic
05:52AM 54.6032 -24.9387 100° East 529 609 33,000  Level FlightAware Transoceanic
05:53AM 54.5779 -24.6884 100° East 529 609 33,000  Level FlightAware Transoceanic
05:54AM 54.5520 -24.4385 100° East 529 609 33,000  Level FlightAware Transoceanic
05:55AM 54.5257 -24.1889 100° East 529 609 33,000  Level FlightAware Transoceanic
05:56AM 54.4988 -23.9397 101° East 529 609 33,000  Level FlightAware Transoceanic
05:57AM 54.4714 -23.6908 101° East 529 609 33,000  Level FlightAware Transoceanic
05:58AM 54.4435 -23.4422 101° East 529 609 33,000  Level FlightAware Transoceanic
05:59AM 54.4151 -23.1939 101° East 529 609 33,000  Level FlightAware Transoceanic
06:00AM 54.3862 -22.9460 101° East 529 609 33,000  Level FlightAware Transoceanic
06:01AM 54.3567 -22.6984 102° East 529 609 33,000  Level FlightAware Transoceanic
06:02AM 54.3268 -22.4512 102° East 529 609 33,000  Level FlightAware Transoceanic
06:03AM 54.2964 -22.2044 102° East 529 609 33,000  Level FlightAware Transoceanic
06:04AM 54.2654 -21.9579 102° East 529 609 33,000  Level FlightAware Transoceanic
06:05AM 54.2340 -21.7118 102° East 529 609 33,000  Level FlightAware Transoceanic
06:06AM 54.2021 -21.4661 103° East 529 609 33,000  Level FlightAware Transoceanic
06:07AM 54.1696 -21.2208 103° East 529 609 33,000  Level FlightAware Transoceanic
06:08AM 54.1367 -20.9758 103° East 529 609 33,000  Level FlightAware Transoceanic
06:09AM 54.1033 -20.7313 103° East 529 609 33,000  Level FlightAware Transoceanic
06:10AM 54.0693 -20.4871 103° East 529 609 33,000  Level FlightAware Transoceanic
06:11AM 54.0349 -20.2433 104° East 529 609 33,000  Level FlightAware Transoceanic
06:12AM 54.0011 -20.0075 104° East  Level FlightAware Approximate
06:13AM 53.9668 -19.7720 104° East  Level FlightAware Approximate
06:14AM 53.9392 -19.7978 117° Southeast  Level FlightAware Approximate
06:15AM 53.8739 -19.5825 117° Southeast  Level FlightAware Approximate
06:16AM 53.8082 -19.3679 117° Southeast  Level FlightAware Approximate
06:17AM 53.7421 -19.1539 118° Southeast  Level FlightAware Approximate
06:18AM 53.6758 -18.9410 118° Southeast  Level FlightAware Approximate
06:19AM 53.6091 -18.7288 118° Southeast  Level FlightAware Approximate
06:20AM 53.5426 -18.5167 118° Southeast  Level FlightAware Approximate
06:21AM 53.4759 -18.3052 118° Southeast  Level FlightAware Approximate
06:22AM 53.4088 -18.0943 118° Southeast  Level FlightAware Approximate
06:23AM 53.3413 -17.8841 118° Southeast  Level FlightAware Approximate
06:24AM 53.2734 -17.6746 118° Southeast  Level FlightAware Approximate
06:25AM 53.2052 -17.4657 119° Southeast  Level FlightAware Approximate
06:26AM 53.1373 -17.2569 118° Southeast  Level FlightAware Approximate
06:27AM 53.0691 -17.0487 119° Southeast  Level FlightAware Approximate
06:28AM 53.0005 -16.8411 119° Southeast  Level FlightAware Approximate
06:29AM 52.9316 -16.6342 119° Southeast  Level FlightAware Approximate
06:30AM 52.8624 -16.4279 119° Southeast  Level FlightAware Approximate
06:31AM 52.7927 -16.2224 119° Southeast  Level FlightAware Approximate
06:32AM 52.7228 -16.0174 119° Southeast  Level FlightAware Approximate
06:33AM 52.6524 -15.8131 120° Southeast  Level FlightAware Approximate
06:34AM 52.5817 -15.6095 120° Southeast  Level FlightAware Approximate
06:35AM 52.5107 -15.4066 120° Southeast  Level FlightAware Approximate
06:36AM 52.4393 -15.2043 120° Southeast  Level FlightAware Approximate
06:36AM 53.9460 -14.2520 120° Southeast 522 601 33,000  Level FlightAware
06:36AM 53.9260 -14.1970 122° Southeast 523 602 33,000  Level FlightAware
06:37AM 53.8540 -14.0730 135° Southeast 519 597 33,000  Level FlightAware
06:37AM 53.7920 -13.9750 137° Southeast 525 604 33,000  Level FlightAware
06:38AM 53.7340 -13.8840 137° Southeast 525 604 33,000  Level FlightAware
06:38AM 53.6640 -13.7750 137° Southeast 524 603 33,000  Level FlightAware
06:39AM 53.5730 -13.6360 138° Southeast 524 603 33,000  Level FlightAware
06:40AM 53.5040 -13.5290 137° Southeast 524 603 33,000  Level FlightAware
06:40AM 53.4390 -13.4320 138° Southeast 518 596 33,000  Level FlightAware
06:41AM 53.3780 -13.3410 138° Southeast 518 596 33,000  Level FlightAware
06:42AM 53.3130 -13.2440 138° Southeast 523 602 33,000  Level FlightAware
06:42AM 53.2470 -13.1450 138° Southeast 524 603 33,000  Level FlightAware
06:43AM 53.1840 -13.0500 138° Southeast 525 604 33,000  Level FlightAware
06:44AM 53.0960 -12.9150 137° Southeast 526 605 33,000  Level FlightAware
06:44AM 53.0300 -12.8160 138° Southeast 526 605 33,000  Level FlightAware
06:45AM 52.9650 -12.7210 139° Southeast 450 518 33,000  Level FlightAware
06:46AM 52.8610 -12.5650 138° Southeast 525 604 33,000  Level FlightAware
06:46AM 52.8020 -12.4760 138° Southeast 525 604 33,000  Level FlightAware
06:47AM 52.7340 -12.3730 137° Southeast 525 604 33,000  Level FlightAware
06:48AM 52.6710 -12.2760 137° Southeast 525 604 33,000  Level FlightAware
06:48AM 52.6100 -12.1830 137° Southeast 526 605 33,000  Level FlightAware
06:49AM 52.5460 -12.0850 137° Southeast 525 604 33,000  Level FlightAware
06:50AM 52.4650 -11.9630 137° Southeast 525 604 33,000  Level FlightAware
06:50AM 52.3800 -11.8380 138° Southeast 524 603 33,000  Level FlightAware
06:51AM 52.3320 -11.7680 138° Southeast 518 596 33,000  Level FlightAware
06:51AM 52.2580 -11.6600 138° Southeast 518 596 33,000  Level FlightAware
06:52AM 52.1930 -11.5670 139° Southeast 518 596 33,000  Level FlightAware
06:53AM 52.1120 -11.4520 139° Southeast 517 595 33,000  Level FlightAware
06:53AM 52.0410 -11.3520 139° Southeast 517 595 33,000  Level FlightAware
06:54AM 51.9790 -11.2650 139° Southeast 517 595 33,000  Level FlightAware
06:55AM 51.9140 -11.1750 139° Southeast 517 595 33,000  Level FlightAware
06:55AM 51.8590 -11.0980 139° Southeast 515 593 33,000  Level FlightAware
06:56AM 51.7890 -11.0000 139° Southeast 515 593 33,000  Level FlightAware
06:56AM 51.7180 -10.9020 139° Southeast 515 593 33,000  Level FlightAware
06:57AM 51.6650 -10.8300 140° Southeast 515 593 33,000 120 Level FlightAware
06:58AM 51.5900 -10.7260 139° Southeast 517 595 33,200 420 Climbing FlightAware
06:58AM 51.5350 -10.6510 140° Southeast 516 594 33,500 900 Climbing FlightAware
06:59AM 51.4570 -10.5450 140° Southeast 520 598 34,300 1,140 Climbing FlightAware
06:59AM 51.4020 -10.4700 140° Southeast 519 597 34,900 1,140 Climbing FlightAware
07:00AM 51.3350 -10.3790 140° Southeast 521 600 35,600 1,020 Climbing FlightAware
07:01AM 51.2620 -10.2800 140° Southeast 514 592 36,300 960 Climbing FlightAware
07:01AM 51.1930 -10.1860 139° Southeast 518 596 36,900 540 Climbing FlightAware
07:02AM 51.1270 -10.0990 140° Southeast 520 598 37,000 60 Climbing FlightAware
07:02AM 51.0660 -10.0170 140° Southeast 520 598 37,000  Level FlightAware
07:03AM 51.0010 -9.9310 140° Southeast 520 598 37,000  Level FlightAware
07:03AM 50.9410 -9.8520 140° Southeast 520 598 37,000  Level FlightAware
07:04AM 50.8720 -9.7600 140° Southeast 520 598 37,000  Level FlightAware
07:05AM 50.8130 -9.6830 140° Southeast 520 598 37,000  Level FlightAware
07:05AM 50.7350 -9.5820 141° Southeast 522 601 37,000  Level FlightAware
07:06AM 50.6590 -9.4830 140° Southeast 522 601 37,000  Level FlightAware
07:07AM 50.5860 -9.3870 140° Southeast 523 602 37,000  Level FlightAware
07:07AM 50.5160 -9.2970 141° Southeast 524 603 37,000  Level FlightAware
07:08AM 50.4550 -9.2180 140° Southeast 541 623 37,000  Level FlightAware
07:08AM 50.3970 -9.1440 141° Southeast 524 603 37,000  Level FlightAware
07:09AM 50.3260 -9.0530 141° Southeast 524 603 37,000  Level FlightAware
07:10AM 50.2530 -8.9600 141° Southeast 524 603 37,000  Level FlightAware
07:10AM 50.1855 -8.8482 141° Southeast 498 573 37,000  Level FlightAware UK
07:10AM 50.1860 -8.8750 141° Southeast 525 604 37,000  Level FlightAware
07:11AM 50.1340 -8.8100 141° Southeast 525 604 37,000  Level FlightAware
07:11AM 50.0735 -8.7063 141° Southeast 496 571 37,000  Level FlightAware UK
07:11AM 50.0560 -8.7100 141° Southeast 526 605 37,000  Level FlightAware
07:12AM 49.9890 -8.6270 141° Southeast 526 605 37,000  Level FlightAware
07:12AM 49.9220 -8.5430 141° Southeast 527 606 37,000  Level FlightAware
07:13AM 49.8610 -8.4660 141° Southeast 527 606 37,000  Level FlightAware
07:14AM 49.7889 -8.3520 141° Southeast 498 573 37,000  Level FlightAware UK
07:14AM 49.7760 -8.3620 141° Southeast 528 608 37,000  Level FlightAware
07:14AM 49.7140 -8.2860 142° Southeast 528 608 37,000  Level FlightAware
07:15AM 49.6163 -8.1411 142° Southeast 496 571 37,000  Level FlightAware UK
07:15AM 49.6110 -8.1600 142° Southeast 529 609 37,000  Level FlightAware
07:16AM 49.5490 -8.0830 141° Southeast 529 609 37,000  Level FlightAware
07:16AM 49.5000 -7.9770 125° Southeast 518 596 37,000  Level FlightAware
07:17AM 49.4760 -7.8490 106° East 513 590 37,000  Level FlightAware
07:18AM 49.4590 -7.7200 101° East 513 590 37,000  Level FlightAware
07:18AM 49.4450 -7.6110 101° East 514 592 37,000  Level FlightAware
07:19AM 49.4130 -7.4850 111° Southeast 527 606 37,000  Level FlightAware
07:19AM 49.3730 -7.3670 117° Southeast 529 609 37,000  Level FlightAware
07:20AM 49.3330 -7.2430 116° Southeast 530 610 37,000  Level FlightAware
07:20AM 49.3020 -7.1500 117° Southeast 531 611 37,000  Level FlightAware
07:21AM 49.2560 -7.0180 118° Southeast 534 615 37,000  Level FlightAware
07:22AM 49.2170 -6.9090 119° Southeast 536 617 37,000  Level FlightAware
07:22AM 49.1720 -6.7579 119° Southeast 500 575 37,000  Level FlightAware UK
07:22AM 49.1750 -6.7880 119° Southeast 537 618 37,000  Level FlightAware
07:23AM 49.1363 -6.6576 119° Southeast 496 571 37,000  Level FlightAware UK
07:23AM 49.1360 -6.6770 119° Southeast 537 618 37,000  Level FlightAware
07:23AM 49.0940 -6.5570 118° Southeast 539 620 37,000  Level FlightAware
07:24AM 49.0510 -6.4360 118° Southeast 543 625 37,000  Level FlightAware
07:24AM 49.0080 -6.3160 119° Southeast 545 627 37,000  Level FlightAware
07:25AM 48.9670 -6.2020 119° Southeast 548 631 37,000  Level FlightAware
07:26AM 48.9240 -6.0850 119° Southeast 550 633 37,000  Level FlightAware
07:26AM 48.9206 -6.0536 119° Southeast 500 575 37,000  Level FlightAware UK
07:26AM 48.8837 -5.9520 119° Southeast 500 575 37,000  Level FlightAware UK
07:26AM 48.8820 -5.9700 119° Southeast 552 635 37,000  Level FlightAware
07:27AM 48.8320 -5.8350 119° Southeast 554 638 37,000  Level FlightAware
07:27AM 48.7920 -5.7250 119° Southeast 554 638 37,000  Level FlightAware
07:28AM 48.7460 -5.6010 119° Southeast 555 639 37,000  Level FlightAware
07:29AM 48.7040 -5.4880 119° Southeast 554 638 37,000  Level FlightAware
07:29AM 48.6565 -5.3407 119° Southeast 504 580 37,000  Level FlightAware UK
07:29AM 48.6560 -5.3610 119° Southeast 553 636 37,000  Level FlightAware
07:30AM 48.6160 -5.2550 120° Southeast 552 635 37,000  Level FlightAware
07:30AM 48.5700 -5.1330 120° Southeast 549 632 37,000  Level FlightAware
07:31AM 48.5250 -5.0150 120° Southeast 547 629 37,000  Level FlightAware
07:32AM 48.4790 -4.8950 120° Southeast 545 627 37,000  Level FlightAware
07:32AM 48.4390 -4.7900 120° Southeast 544 626 37,000  Level FlightAware
07:33AM 48.3960 -4.6780 120° Southeast 543 625 37,000  Level FlightAware
07:33AM 48.3461 -4.5249 120° Southeast 502 578 37,000  Level FlightAware UK
07:33AM 48.3490 -4.5550 120° Southeast 542 624 37,000  Level FlightAware
07:34AM 48.3083 -4.4264 120° Southeast 504 580 37,000  Level FlightAware UK
07:34AM 48.3030 -4.4360 120° Southeast 541 623 37,000  Level FlightAware
07:34AM 48.2633 -4.3095 120° Southeast 504 580 37,000  Level FlightAware UK
07:34AM 48.2640 -4.3350 120° Southeast 538 619 37,000  Level FlightAware
07:35AM 48.2190 -4.2180 120° Southeast 537 618 37,000  Level FlightAware
07:36AM 48.1790 -4.1140 120° Southeast 536 617 37,000  Level FlightAware
07:36AM 48.1290 -3.9850 120° Southeast 536 617 37,000  Level FlightAware
07:37AM 48.0890 -3.8850 121° Southeast 535 616 37,000  Level FlightAware
07:37AM 48.0440 -3.7710 121° Southeast 534 615 37,000  Level FlightAware
07:38AM 47.9990 -3.6580 121° Southeast 532 612 37,000  Level FlightAware
07:39AM 47.9520 -3.5430 121° Southeast 531 611 37,000  Level FlightAware
07:39AM 47.9150 -3.4440 119° Southeast 529 609 37,000  Level FlightAware
07:40AM 47.8710 -3.3250 119° Southeast 528 608 37,000  Level FlightAware
07:40AM 47.8290 -3.2130 119° Southeast 526 605 37,000  Level FlightAware
07:41AM 47.7910 -3.1120 119° Southeast 525 604 37,000  Level FlightAware
07:41AM 47.7490 -3.0010 119° Southeast 523 602 37,000  Level FlightAware
07:42AM 47.7050 -2.8860 120° Southeast 521 600 37,000  Level FlightAware
07:43AM 47.6630 -2.7770 120° Southeast 519 597 37,000  Level FlightAware
07:43AM 47.6250 -2.6790 120° Southeast 518 596 37,000  Level FlightAware
07:44AM 47.5800 -2.5610 119° Southeast 516 594 37,000  Level FlightAware
07:44AM 47.5420 -2.4620 120° Southeast 516 594 37,000  Level FlightAware
07:45AM 47.5010 -2.3560 120° Southeast 517 595 37,000  Level FlightAware
07:45AM 47.4570 -2.2420 120° Southeast 519 597 37,000  Level FlightAware
07:46AM 47.4130 -2.1300 120° Southeast 521 600 37,000  Level FlightAware
07:47AM 47.3670 -2.0120 120° Southeast 523 602 37,000  Level FlightAware
07:47AM 47.3230 -1.9020 121° Southeast 524 603 37,000  Level FlightAware
07:48AM 47.2790 -1.7910 120° Southeast 526 605 37,000  Level FlightAware
07:49AM 47.2360 -1.6840 121° Southeast 528 608 37,000  Level FlightAware
07:49AM 47.1930 -1.5750 120° Southeast 529 609 37,000  Level FlightAware
07:50AM 47.1560 -1.4820 120° Southeast 532 612 37,000  Level FlightAware
07:50AM 47.1070 -1.3630 121° Southeast 533 613 37,000  Level FlightAware
07:51AM 47.0630 -1.2510 120° Southeast 537 618 37,000  Level FlightAware
07:51AM 47.0170 -1.1380 121° Southeast 539 620 37,000  Level FlightAware
07:52AM 46.9730 -1.0310 121° Southeast 540 621 37,000  Level FlightAware
07:53AM 46.9270 -0.9180 121° Southeast 542 624 37,000  Level FlightAware
07:53AM 46.8830 -0.8050 120° Southeast 541 623 37,000  Level FlightAware
07:54AM 46.8460 -0.7030 118° Southeast 540 621 37,000  Level FlightAware
07:54AM 46.8040 -0.5760 116° Southeast 539 620 37,000  Level FlightAware
07:55AM 46.7740 -0.4840 115° Southeast 539 620 37,000  Level FlightAware
07:56AM 46.7200 -0.3190 115° Southeast 540 621 37,000  Level FlightAware
07:56AM 46.6820 -0.2050 116° Southeast 540 621 37,000  Level FlightAware
07:57AM 46.6380 -0.0760 116° Southeast 540 621 37,000  Level FlightAware
07:57AM 46.6050 0.0230 116° Southeast 540 621 37,000  Level FlightAware
07:58AM 46.5650 0.1390 117° Southeast 541 623 37,000  Level FlightAware
07:59AM 46.5230 0.2640 116° Southeast 541 623 37,000  Level FlightAware
07:59AM 46.4830 0.3790 117° Southeast 542 624 37,000  Level FlightAware
08:00AM 46.4500 0.4760 116° Southeast 542 624 37,000  Level FlightAware
08:00AM 46.4100 0.5970 116° Southeast 543 625 37,000  Level FlightAware
08:01AM 46.3670 0.7220 116° Southeast 543 625 37,000  Level FlightAware
08:02AM 46.3350 0.8190 116° Southeast 543 625 37,000  Level FlightAware
08:02AM 46.2960 0.9340 116° Southeast 543 625 37,000  Level FlightAware
08:03AM 46.2590 1.0420 116° Southeast 544 626 37,000  Level FlightAware
08:03AM 46.2130 1.1750 117° Southeast 545 627 37,000  Level FlightAware
08:04AM 46.1680 1.3010 117° Southeast 544 626 37,000  Level FlightAware
08:05AM 46.1220 1.4270 118° Southeast 543 625 37,000  Level FlightAware
08:05AM 46.0820 1.5400 117° Southeast 543 625 37,000  Level FlightAware
08:06AM 46.0360 1.6660 118° Southeast 543 625 37,000  Level FlightAware
08:07AM 45.9840 1.8060 118° Southeast 543 625 37,000  Level FlightAware
08:07AM 45.9540 1.8890 117° Southeast 544 626 37,000  Level FlightAware
08:08AM 45.8930 2.0550 118° Southeast 546 628 37,000  Level FlightAware
08:08AM 45.8520 2.1670 118° Southeast 547 629 37,000  Level FlightAware
08:09AM 45.8080 2.2870 118° Southeast 548 631 37,000  Level FlightAware
08:10AM 45.7720 2.3850 118° Southeast 550 633 37,000  Level FlightAware
08:10AM 45.7280 2.5060 117° Southeast 550 633 37,000  Level FlightAware
08:11AM 45.6830 2.6250 118° Southeast 549 632 37,000  Level FlightAware
08:11AM 45.6460 2.7260 118° Southeast 549 632 37,000  Level FlightAware
08:12AM 45.6030 2.8420 118° Southeast 548 631 37,000  Level FlightAware
08:13AM 45.5640 2.9450 118° Southeast 548 631 37,000  Level FlightAware
08:13AM 45.5190 3.0670 118° Southeast 548 631 37,000  Level FlightAware
08:14AM 45.4770 3.1770 119° Southeast 548 631 37,000  Level FlightAware
08:14AM 45.4350 3.2910 118° Southeast 547 629 37,000  Level FlightAware
08:15AM 45.3990 3.3900 117° Southeast 547 629 37,000  Level FlightAware
08:15AM 45.3540 3.5110 118° Southeast 548 631 37,000  Level FlightAware
08:16AM 45.3160 3.6150 117° Southeast 550 633 37,000  Level FlightAware
08:17AM 45.2690 3.7430 118° Southeast 553 636 37,000  Level FlightAware
08:17AM 45.2320 3.8410 118° Southeast 553 636 37,000  Level FlightAware
08:18AM 45.1820 3.9580 121° Southeast 553 636 37,000  Level FlightAware
08:18AM 45.1350 4.0660 122° Southeast 554 638 37,000  Level FlightAware
08:19AM 45.0860 4.1710 123° Southeast 554 638 37,000  Level FlightAware
08:20AM 45.0340 4.2790 124° Southeast 558 642 37,000  Level FlightAware
08:20AM 44.9880 4.3760 124° Southeast 560 644 37,000  Level FlightAware
08:21AM 44.9360 4.4860 124° Southeast 562 647 37,000  Level FlightAware
08:21AM 44.8850 4.5960 123° Southeast 566 651 37,000  Level FlightAware
08:22AM 44.8360 4.6990 124° Southeast 566 651 37,000  Level FlightAware
08:23AM 44.7790 4.8180 124° Southeast 567 652 37,000  Level FlightAware
08:23AM 44.7330 4.9150 124° Southeast 567 652 37,000  Level FlightAware
08:24AM 44.6800 5.0260 124° Southeast 567 652 37,000  Level FlightAware
08:24AM 44.6300 5.1300 124° Southeast 567 652 37,000  Level FlightAware
08:25AM 44.5790 5.2360 124° Southeast 568 654 37,000  Level FlightAware
08:25AM 44.5250 5.3470 124° Southeast 569 655 37,000  Level FlightAware
08:26AM 44.4760 5.4460 125° Southeast 570 656 37,000  Level FlightAware
08:27AM 44.4240 5.5530 124° Southeast 571 657 37,000  Level FlightAware
08:27AM 44.3790 5.6460 124° Southeast 569 655 37,000  Level FlightAware
08:28AM 44.3170 5.7730 124° Southeast 568 654 37,000  Level FlightAware
08:28AM 44.2690 5.8700 125° Southeast 566 651 37,000  Level FlightAware
08:29AM 44.2140 5.9870 123° Southeast 567 652 37,000  Level FlightAware
08:30AM 44.1650 6.1010 121° Southeast 567 652 37,000  Level FlightAware
08:30AM 44.1250 6.1920 121° Southeast 568 654 37,000  Level FlightAware
08:31AM 44.0740 6.3090 121° Southeast 569 655 37,000  Level FlightAware
08:31AM 44.0300 6.4070 122° Southeast 570 656 37,000  Level FlightAware
08:32AM 43.9770 6.5250 122° Southeast 571 657 37,000  Level FlightAware
08:32AM 43.9330 6.6220 122° Southeast 572 658 37,000  Level FlightAware
08:33AM 43.8760 6.7470 122° Southeast 573 659 37,000  Level FlightAware
08:34AM 43.8280 6.8530 122° Southeast 573 659 37,000  Level FlightAware
08:34AM 43.7810 6.9550 123° Southeast 575 662 37,000  Level FlightAware
08:35AM 43.7340 7.0570 123° Southeast 574 661 37,000  Level FlightAware
08:35AM 43.6830 7.1680 122° Southeast 572 658 37,000  Level FlightAware
08:36AM 43.6260 7.2900 123° Southeast 572 658 37,000  Level FlightAware
08:36AM 43.5850 7.3790 122° Southeast 570 656 37,000  Level FlightAware
08:37AM 43.5290 7.5000 123° Southeast 569 655 37,000  Level FlightAware
08:38AM 43.4760 7.6120 123° Southeast 569 655 37,000  Level FlightAware
08:38AM 43.4310 7.7090 123° Southeast 570 656 37,000  Level FlightAware
08:39AM 43.3780 7.8220 123° Southeast 570 656 37,000  Level FlightAware
08:39AM 43.3280 7.9280 123° Southeast 570 656 37,000  Level FlightAware
08:40AM 43.2750 8.0400 123° Southeast 571 657 37,000  Level FlightAware
08:41AM 43.2280 8.1400 123° Southeast 570 656 37,000  Level FlightAware
08:41AM 43.1750 8.2510 123° Southeast 571 657 37,000  Level FlightAware
08:42AM 43.1230 8.3590 123° Southeast 571 657 37,000  Level FlightAware
08:42AM 43.0780 8.4520 124° Southeast 572 658 37,000  Level FlightAware
08:43AM 43.0260 8.5590 124° Southeast 571 657 37,000  Level FlightAware
08:43AM 42.9760 8.6620 124° Southeast 571 657 37,000  Level FlightAware
08:44AM 42.9200 8.7760 124° Southeast 570 656 37,000  Level FlightAware
08:45AM 42.8730 8.8740 123° Southeast 569 655 37,000  Level FlightAware
08:45AM 42.8140 8.9930 124° Southeast 569 655 37,000  Level FlightAware
08:46AM 42.7640 9.0950 124° Southeast 570 656 37,000  Level FlightAware
08:47AM 42.7060 9.2130 124° Southeast 569 655 37,000  Level FlightAware
08:47AM 42.6530 9.3190 124° Southeast 568 654 37,000  Level FlightAware
08:48AM 42.6020 9.4240 123° Southeast 569 655 37,000  Level FlightAware
08:48AM 42.5640 9.5290 116° Southeast 570 656 37,000  Level FlightAware
08:49AM 42.5340 9.6380 110° East 569 655 37,000  Level FlightAware
08:49AM 42.4990 9.7700 110° East 570 656 37,000  Level FlightAware
08:50AM 42.4730 9.8710 109° East 573 659 37,000  Level FlightAware
08:51AM 42.4370 10.0050 110° East 574 661 37,000  Level FlightAware
08:51AM 42.4090 10.1110 110° East 575 662 37,000  Level FlightAware
08:52AM 42.3750 10.2380 110° East 574 661 37,000  Level FlightAware
08:52AM 42.3420 10.3590 110° East 574 661 37,000  Level FlightAware
08:53AM 42.3150 10.4580 110° East 573 659 37,000  Level FlightAware
08:53AM 42.2820 10.5800 110° East 570 656 37,000  Level FlightAware
08:54AM 42.2450 10.7110 111° Southeast 570 656 37,000  Level FlightAware
08:55AM 42.2150 10.8190 111° Southeast 568 654 37,000  Level FlightAware
08:55AM 42.1800 10.9450 111° Southeast 566 651 37,000  Level FlightAware
08:56AM 42.1460 11.0460 114° Southeast 563 648 37,000  Level FlightAware
08:56AM 42.0980 11.1470 123° Southeast 563 648 37,000  Level FlightAware
08:57AM 42.0410 11.2380 130° Southeast 561 646 37,000  Level FlightAware
08:58AM 41.9780 11.3370 131° Southeast 558 642 37,000  Level FlightAware
08:58AM 41.9160 11.4320 131° Southeast 557 641 37,000  Level FlightAware
08:59AM 41.8560 11.5260 131° Southeast 555 639 37,000  Level FlightAware
08:59AM 41.8010 11.6100 131° Southeast 554 638 37,000  Level FlightAware
09:00AM 41.7410 11.7030 131° Southeast 553 636 37,000  Level FlightAware
09:01AM 41.6790 11.7970 131° Southeast 552 635 37,000  Level FlightAware
09:01AM 41.6230 11.8830 131° Southeast 551 634 37,000  Level FlightAware
09:02AM 41.5630 11.9750 131° Southeast 549 632 37,000  Level FlightAware
09:02AM 41.5030 12.0670 131° Southeast 547 629 37,000  Level FlightAware
09:03AM 41.4430 12.1590 131° Southeast 545 627 37,000  Level FlightAware
09:03AM 41.3910 12.2380 131° Southeast 544 626 37,000  Level FlightAware
09:04AM 41.3310 12.3290 131° Southeast 542 624 37,000  Level FlightAware
09:05AM 41.2730 12.4160 132° Southeast 541 623 37,000  Level FlightAware
09:05AM 41.2120 12.5080 131° Southeast 543 625 37,000  Level FlightAware
09:06AM 41.1640 12.5810 131° Southeast 544 626 37,000  Level FlightAware
09:06AM 41.1130 12.6910 122° Southeast 544 626 37,000  Level FlightAware
09:07AM 41.0750 12.7750 121° Southeast 542 624 37,000 180 Level FlightAware
09:07AM 41.0310 12.8720 121° Southeast 536 617 37,200 480 Climbing FlightAware
09:08AM 40.9790 12.9800 123° Southeast 525 604 37,600 840 Climbing FlightAware
09:09AM 40.9320 13.0800 122° Southeast 519 597 38,300 1,140 Climbing FlightAware
09:09AM 40.8880 13.1780 121° Southeast 515 593 39,000 600 Climbing FlightAware
09:10AM 40.8460 13.2700 121° Southeast 522 601 39,000  Level FlightAware
09:10AM 40.8070 13.3550 121° Southeast 519 597 39,000  Level FlightAware
09:11AM 40.7720 13.4740 111° Southeast 522 601 39,000  Level FlightAware
09:12AM 40.7510 13.5720 106° East 523 602 39,000  Level FlightAware
09:12AM 40.7270 13.6800 106° East 523 602 39,000  Level FlightAware
09:13AM 40.7030 13.7940 105° East 523 602 39,000  Level FlightAware
09:13AM 40.6830 13.8920 105° East 522 601 39,000  Level FlightAware
09:14AM 40.6590 14.0080 105° East 517 595 39,000  Level FlightAware
09:14AM 40.6400 14.0990 105° East 513 590 39,000  Level FlightAware
09:15AM 40.6160 14.2100 106° East 510 587 39,000  Level FlightAware
09:16AM 40.5920 14.3220 106° East 508 585 39,000  Level FlightAware
09:16AM 40.5660 14.4310 107° East 503 579 39,000  Level FlightAware
09:17AM 40.5380 14.5220 112° Southeast 502 578 39,000  Level FlightAware
09:17AM 40.5060 14.6210 113° Southeast 501 577 39,000  Level FlightAware
09:18AM 40.4700 14.7220 115° Southeast 500 575 39,000  Level FlightAware
09:19AM 40.4300 14.8120 120° Southeast 498 573 39,000  Level FlightAware
09:19AM 40.3940 14.8980 119° Southeast 500 575 39,000  Level FlightAware
09:20AM 40.3540 14.9940 119° Southeast 502 578 39,000  Level FlightAware
09:20AM 40.3140 15.0880 119° Southeast 504 580 39,000  Level FlightAware
09:21AM 40.2730 15.1850 119° Southeast 511 588 39,000  Level FlightAware
09:21AM 40.2350 15.2730 119° Southeast 514 592 39,000  Level FlightAware
09:22AM 40.1900 15.3740 120° Southeast 515 593 39,000  Level FlightAware
09:23AM 40.1470 15.4730 120° Southeast 511 588 39,000  Level FlightAware
09:23AM 40.1110 15.5560 120° Southeast 506 582 39,000  Level FlightAware
09:24AM 40.0690 15.6540 119° Southeast 502 578 39,000  Level FlightAware
09:24AM 40.0300 15.7430 120° Southeast 500 575 39,000  Level FlightAware
09:25AM 39.9920 15.8290 120° Southeast 498 573 39,000  Level FlightAware
09:26AM 39.9510 15.9220 120° Southeast 497 572 39,000  Level FlightAware
09:26AM 39.9100 16.0160 120° Southeast 498 573 39,000  Level FlightAware
09:27AM 39.8670 16.1110 121° Southeast 503 579 39,000  Level FlightAware
09:27AM 39.8260 16.2050 120° Southeast 505 581 39,000  Level FlightAware
09:28AM 39.7900 16.2860 120° Southeast 506 582 39,000  Level FlightAware
09:29AM 39.7440 16.3890 120° Southeast 507 583 39,000  Level FlightAware
09:29AM 39.7020 16.4820 120° Southeast 509 586 39,000  Level FlightAware
09:30AM 39.6630 16.5690 120° Southeast 510 587 39,000  Level FlightAware
09:30AM 39.6200 16.6640 120° Southeast 514 592 39,000  Level FlightAware
09:31AM 39.5770 16.7580 121° Southeast 516 594 39,000  Level FlightAware
09:31AM 39.5370 16.8460 120° Southeast 518 596 39,000  Level FlightAware
09:32AM 39.4940 16.9420 120° Southeast 518 596 39,000  Level FlightAware
09:33AM 39.4470 17.0450 121° Southeast 524 603 39,000  Level FlightAware
09:33AM 39.4080 17.1300 121° Southeast 526 605 39,000  Level FlightAware
09:34AM 39.3640 17.2260 121° Southeast 525 604 39,000  Level FlightAware
09:34AM 39.3230 17.3140 121° Southeast 525 604 39,000  Level FlightAware
09:35AM 39.2790 17.4080 121° Southeast 525 604 39,000  Level FlightAware
09:35AM 39.2340 17.5060 121° Southeast 525 604 39,000  Level FlightAware
09:36AM 39.1880 17.6060 121° Southeast 527 606 39,000  Level FlightAware
09:37AM 39.1480 17.6910 121° Southeast 527 606 39,000  Level FlightAware
09:37AM 39.1010 17.7910 121° Southeast 527 606 39,000  Level FlightAware
09:38AM 39.0580 17.8840 121° Southeast 528 608 39,000  Level FlightAware
09:38AM 39.0130 17.9810 121° Southeast 527 606 39,000  Level FlightAware
09:39AM 38.9770 18.0570 121° Southeast 528 608 39,000  Level FlightAware
09:40AM 38.9240 18.1690 121° Southeast 528 608 39,000  Level FlightAware
09:40AM 38.8790 18.2660 121° Southeast 528 608 39,000  Level FlightAware
09:41AM 38.8380 18.3520 121° Southeast 528 608 39,000  Level FlightAware
09:41AM 38.7900 18.4520 122° Southeast 529 609 39,000  Level FlightAware
09:42AM 38.7460 18.5440 121° Southeast 528 608 39,000  Level FlightAware
09:43AM 38.7010 18.6400 121° Southeast 528 608 39,000  Level FlightAware
09:43AM 38.6570 18.7310 122° Southeast 527 606 39,000  Level FlightAware
09:44AM 38.6120 18.8230 122° Southeast 527 606 39,000  Level FlightAware
09:44AM 38.5770 18.8970 121° Southeast 528 608 39,000  Level FlightAware
09:45AM 38.5200 19.0390 117° Southeast 528 608 39,000  Level FlightAware
09:46AM 38.4860 19.1550 110° East 527 606 39,000  Level FlightAware
09:46AM 38.4570 19.2430 113° Southeast 526 605 39,000  Level FlightAware
09:47AM 38.4200 19.3560 113° Southeast 526 605 39,000  Level FlightAware
09:47AM 38.3870 19.4590 112° Southeast 524 603 39,000  Level FlightAware
09:48AM 38.3600 19.5430 112° Southeast 525 604 39,000  Level FlightAware
09:49AM 38.3280 19.6440 112° Southeast 525 604 39,000  Level FlightAware
09:49AM 38.2960 19.7440 112° Southeast 524 603 39,000  Level FlightAware
09:50AM 38.2590 19.8600 112° Southeast 525 604 39,000  Level FlightAware
09:50AM 38.2220 19.9740 112° Southeast 527 606 39,000  Level FlightAware
09:51AM 38.1880 20.0770 113° Southeast 530 610 39,000  Level FlightAware
09:52AM 38.1560 20.1760 112° Southeast 530 610 39,000  Level FlightAware
09:52AM 38.1220 20.2800 113° Southeast 530 610 39,000  Level FlightAware
09:53AM 38.0890 20.3790 113° Southeast 531 611 39,000  Level FlightAware
09:53AM 38.0560 20.4810 112° Southeast 530 610 39,000  Level FlightAware
09:54AM 38.0230 20.5810 113° Southeast 530 610 39,000  Level FlightAware
09:55AM 37.9890 20.6830 113° Southeast 532 612 39,000  Level FlightAware
09:55AM 37.9560 20.7820 113° Southeast 531 611 39,000  Level FlightAware
09:56AM 37.9220 20.8820 113° Southeast 531 611 39,000  Level FlightAware
09:56AM 37.8880 20.9820 113° Southeast 530 610 39,000  Level FlightAware
09:57AM 37.8540 21.0810 113° Southeast 529 609 39,000  Level FlightAware
09:57AM 37.8200 21.1800 113° Southeast 528 608 39,000  Level FlightAware
09:58AM 37.7850 21.2820 113° Southeast 527 606 39,000  Level FlightAware
09:59AM 37.7540 21.3730 113° Southeast 524 603 39,000  Level FlightAware
09:59AM 37.7130 21.4900 114° Southeast 524 603 39,000  Level FlightAware
10:00AM 37.6740 21.6050 113° Southeast 522 601 39,000  Level FlightAware
10:00AM 37.6440 21.6900 114° Southeast 521 600 39,000  Level FlightAware
10:01AM 37.5990 21.8200 114° Southeast 521 600 39,000  Level FlightAware
10:02AM 37.5720 21.8950 114° Southeast 522 601 39,000  Level FlightAware
10:03AM 37.5260 22.0300 113° Southeast 522 601 39,000  Level FlightAware
10:03AM 37.4820 22.1520 114° Southeast 519 597 39,000  Level FlightAware
10:04AM 37.4540 22.2310 114° Southeast 517 595 39,000  Level FlightAware
10:04AM 37.4100 22.3430 116° Southeast 511 588 39,000  Level FlightAware
10:05AM 37.3670 22.4240 124° Southeast 509 586 39,000  Level FlightAware
10:06AM 37.3090 22.5240 126° Southeast 504 580 39,000  Level FlightAware
10:06AM 37.2680 22.5950 126° Southeast 504 580 39,000  Level FlightAware
10:07AM 37.2110 22.6920 126° Southeast 511 588 39,000  Level FlightAware
10:07AM 37.1720 22.7590 126° Southeast 511 588 39,000  Level FlightAware
10:08AM 37.1130 22.8590 126° Southeast 512 589 39,000  Level FlightAware
10:09AM 37.0600 22.9490 126° Southeast 513 590 39,000  Level FlightAware
10:09AM 37.0130 23.0300 126° Southeast 513 590 39,000  Level FlightAware
10:10AM 36.9620 23.1170 126° Southeast 513 590 39,000  Level FlightAware
10:10AM 36.9180 23.1930 126° Southeast 513 590 39,000  Level FlightAware
10:11AM 36.8660 23.2810 126° Southeast 513 590 39,000  Level FlightAware
10:11AM 36.8180 23.3650 126° Southeast 515 593 39,000  Level FlightAware
10:12AM 36.7710 23.4590 122° Southeast 518 596 39,000  Level FlightAware
10:13AM 36.7310 23.5400 122° Southeast 518 596 39,000  Level FlightAware
10:13AM 36.6890 23.6330 119° Southeast 523 602 39,000  Level FlightAware
10:14AM 36.6500 23.7260 118° Southeast 524 603 39,000  Level FlightAware
10:14AM 36.6100 23.8220 117° Southeast 524 603 39,000  Level FlightAware
10:15AM 36.5690 23.9180 118° Southeast 524 603 39,000  Level FlightAware
10:16AM 36.5290 24.0120 118° Southeast 524 603 39,000  Level FlightAware
10:16AM 36.4920 24.0960 119° Southeast 525 604 39,000  Level FlightAware
10:17AM 36.4490 24.1930 119° Southeast 526 605 39,000  Level FlightAware
10:17AM 36.4110 24.2790 119° Southeast 528 608 39,000  Level FlightAware
10:18AM 36.3700 24.3720 119° Southeast 528 608 39,000  Level FlightAware
10:18AM 36.3280 24.4690 118° Southeast 529 609 39,000  Level FlightAware
10:19AM 36.2860 24.5650 118° Southeast 530 610 39,000  Level FlightAware
10:20AM 36.2450 24.6610 118° Southeast 530 610 39,000  Level FlightAware
10:20AM 36.2080 24.7460 118° Southeast 530 610 39,000  Level FlightAware
10:21AM 36.1630 24.8480 119° Southeast 530 610 39,000  Level FlightAware
10:21AM 36.1250 24.9340 119° Southeast 531 611 39,000  Level FlightAware
10:22AM 36.0840 25.0290 118° Southeast 532 612 39,000  Level FlightAware
10:23AM 36.0410 25.1260 119° Southeast 532 612 39,000  Level FlightAware
10:23AM 35.9980 25.2220 119° Southeast 532 612 39,000  Level FlightAware
10:24AM 35.9600 25.3080 119° Southeast 530 610 39,000  Level FlightAware
10:24AM 35.9150 25.4090 119° Southeast 531 611 39,000  Level FlightAware
10:25AM 35.8780 25.4920 119° Southeast 532 612 39,000  Level FlightAware
10:25AM 35.8330 25.5930 119° Southeast 532 612 39,000  Level FlightAware
10:26AM 35.7940 25.6780 119° Southeast 533 613 39,000  Level FlightAware
10:27AM 35.7520 25.7690 120° Southeast 534 615 39,000  Level FlightAware
10:27AM 35.7100 25.8600 120° Southeast 533 613 39,000  Level FlightAware
10:28AM 35.6620 25.9650 119° Southeast 533 613 39,000  Level FlightAware
10:28AM 35.6210 26.0530 120° Southeast 533 613 39,000  Level FlightAware
10:29AM 35.5780 26.1480 119° Southeast 532 612 39,000  Level FlightAware
10:30AM 35.5390 26.2340 119° Southeast 531 611 39,000  Level FlightAware
10:30AM 35.4960 26.3280 119° Southeast 531 611 39,000  Level FlightAware
10:31AM 35.4530 26.4220 119° Southeast 530 610 39,000  Level FlightAware
10:31AM 35.4070 26.5220 119° Southeast 530 610 39,000  Level FlightAware
10:32AM 35.3670 26.6100 119° Southeast 531 611 39,000  Level FlightAware
10:32AM 35.3290 26.6920 120° Southeast 531 611 39,000  Level FlightAware
10:33AM 35.2880 26.7820 119° Southeast 531 611 39,000  Level FlightAware
10:34AM 35.2510 26.8620 120° Southeast 531 611 39,000  Level FlightAware
10:34AM 35.2070 26.9560 120° Southeast 530 610 39,000  Level FlightAware
10:35AM 35.1620 27.0520 120° Southeast 530 610 39,000  Level FlightAware
10:35AM 35.1140 27.1550 120° Southeast 533 613 39,000  Level FlightAware
10:36AM 35.0760 27.2360 120° Southeast 534 615 39,000  Level FlightAware
10:37AM 35.0270 27.3410 120° Southeast 535 616 39,000  Level FlightAware
10:37AM 34.9800 27.4410 120° Southeast 538 619 39,000  Level FlightAware
10:38AM 34.9340 27.5390 120° Southeast 537 618 39,000  Level FlightAware
10:38AM 34.8900 27.6320 120° Southeast 537 618 39,000  Level FlightAware
10:39AM 34.8340 27.7540 119° Southeast 536 617 39,000  Level FlightAware
10:40AM 34.7910 27.8440 120° Southeast 535 616 39,000  Level FlightAware
10:41AM 34.7390 27.9540 120° Southeast 535 616 39,000  Level FlightAware
10:41AM 34.7020 28.0340 119° Southeast 535 616 39,000  Level FlightAware
10:42AM 34.6370 28.1610 122° Southeast 537 618 39,000  Level FlightAware
10:42AM 34.5890 28.2610 120° Southeast 531 611 39,000  Level FlightAware
10:43AM 34.5520 28.3410 119° Southeast 530 610 39,000  Level FlightAware
10:44AM 34.5150 28.4210 119° Southeast 530 610 39,000  Level FlightAware
10:44AM 34.4790 28.5010 119° Southeast 530 610 39,000  Level FlightAware
10:45AM 34.4410 28.5850 119° Southeast 530 610 39,000  Level FlightAware
10:45AM 34.4040 28.6640 120° Southeast 530 610 39,000  Level FlightAware
10:46AM 34.3670 28.7460 119° Southeast 530 610 39,000  Level FlightAware
10:47AM 34.3310 28.8250 119° Southeast 530 610 39,000  Level FlightAware
10:47AM 34.2940 28.9050 119° Southeast 530 610 39,000  Level FlightAware
10:48AM 34.2570 28.9860 119° Southeast 530 610 39,000  Level FlightAware
10:48AM 34.1550 29.1550 126° Southeast 39,000  Level FlightAware
10:50AM 34.0510 29.3660 121° Southeast 39,000  Level FlightAware
10:50AM 34.0040 29.4620 121° Southeast 521 600 39,000  Level FlightAware
10:51AM 33.9660 29.5410 120° Southeast 521 600 39,000  Level FlightAware
10:51AM 33.9120 29.6460 122° Southeast 834 960 39,000  Level FlightAware
10:52AM 33.8690 29.7330 121° Southeast 521 600 39,000  Level FlightAware
10:53AM 33.8020 29.8680 121° Southeast 524 603 39,000  Level FlightAware
10:54AM 33.7580 29.9620 119° Southeast 527 606 39,000  Level FlightAware
10:54AM 33.7390 30.0890 100° East 539 620 39,000  Level FlightAware
10:55AM 33.7370 30.1970 91° East 539 620 39,000  Level FlightAware
10:56AM 33.7350 30.3140 91° East 539 620 39,000  Level FlightAware
10:56AM 33.7340 30.4250 91° East 539 620 39,000  Level FlightAware
10:57AM 33.7320 30.5300 91° East 539 620 39,000  Level FlightAware
10:58AM 33.7290 30.6790 91° East 539 620 39,000  Level FlightAware
10:58AM 33.7270 30.7860 91° East 539 620 39,000  Level FlightAware
10:59AM 33.7250 30.8920 91° East 539 620 39,000  Level FlightAware
10:59AM 33.7230 30.9820 92° East 539 620 39,000  Level FlightAware
11:00AM 33.7200 31.1000 92° East 538 619 39,000  Level FlightAware
11:00AM 33.7190 31.1860 91° East 538 619 39,000  Level FlightAware
11:01AM 33.7160 31.3100 92° East 538 619 39,000  Level FlightAware
11:02AM 33.7140 31.4010 91° East 538 619 39,000  Level FlightAware
11:02AM 33.7090 31.5020 93° East 536 617 39,000  Level FlightAware
11:03AM 33.6800 31.5980 110° East 529 609 39,000  Level FlightAware
11:03AM 33.6450 31.6950 113° Southeast 530 610 39,000  Level FlightAware
11:04AM 33.6090 31.7920 114° Southeast 531 611 39,000  Level FlightAware
11:05AM 33.5650 31.8960 117° Southeast 526 605 39,000  Level FlightAware
11:05AM 33.5310 31.9770 117° Southeast 526 605 39,000  Level FlightAware
11:06AM 33.4950 32.0660 116° Southeast 524 603 39,000  Level FlightAware
11:06AM 33.4560 32.1590 117° Southeast 523 602 39,000  Level FlightAware
11:07AM 33.4190 32.2480 116° Southeast 522 601 39,000  Level FlightAware
11:07AM 33.3860 32.3290 116° Southeast 522 601 39,000  Level FlightAware
11:08AM 33.3490 32.4160 117° Southeast 520 598 39,000  Level FlightAware
11:09AM 33.3090 32.5120 116° Southeast 520 598 39,000 -900 Level FlightAware
11:09AM 33.2720 32.6020 116° Southeast 519 597 38,000 -2,580 Descending FlightAware
11:10AM 33.2340 32.6930 117° Southeast 526 605 36,000 -3,720 Descending FlightAware
11:10AM 33.1900 32.7960 117° Southeast 543 625 33,400 -3,600 Descending FlightAware
11:11AM 33.1510 32.8890 117° Southeast 538 619 31,500 -2,880 Descending FlightAware
11:12AM 33.1100 32.9760 119° Southeast 520 598 30,100 -2,520 Descending FlightAware
11:12AM 33.0580 33.0780 121° Southeast 508 585 28,500 -2,400 Descending FlightAware
11:13AM 33.0200 33.1530 121° Southeast 496 571 27,300 -2,220 Descending FlightAware
11:13AM 33.0010 33.2120 111° Southeast 490 564 26,400 -1,980 Descending FlightAware
11:14AM 32.9900 33.3210 97° East 466 536 25,200 -1,440 Descending FlightAware
11:14AM 32.9870 33.4040 92° East 435 501 24,700 -840 Descending FlightAware
11:15AM 32.9840 33.5010 92° East 401 461 24,200 -1,020 Descending FlightAware
11:16AM 32.9810 33.5780 93° East 389 448 23,400 -1,440 Descending FlightAware
11:16AM 32.9780 33.6540 93° East 377 434 22,500 -1,560 Descending FlightAware
11:17AM 32.9750 33.7280 93° East 367 422 21,600 -1,560 Descending FlightAware
11:17AM 32.9720 33.7550 98° East 364 419 21,200 -1,260 Descending FlightAware
11:17AM 32.9590 33.7910 113° Southeast 355 409 20,900 -1,320 Descending FlightAware
11:18AM 32.9370 33.8210 131° Southeast 349 402 20,300 -1,620 Descending FlightAware
11:18AM 32.8910 33.8640 142° Southeast 343 395 19,400 -1,560 Descending FlightAware
11:19AM 32.8470 33.9050 142° Southeast 335 386 18,500 -1,500 Descending FlightAware
11:20AM 32.8050 33.9430 143° Southeast 383 441 17,700 -1,560 Descending FlightAware
11:20AM 32.7500 33.9950 142° Southeast 413 475 16,700 -1,740 Descending FlightAware
11:21AM 32.7010 34.0400 142° Southeast 408 470 15,700 -1,740 Descending FlightAware
11:21AM 32.6460 34.0920 141° Southeast 391 450 14,700 -1,620 Descending FlightAware
11:22AM 32.6000 34.1350 142° Southeast 376 433 13,800 -1,680 Descending FlightAware
11:22AM 32.5560 34.1760 142° Southeast 361 415 12,900 -1,560 Descending FlightAware
11:23AM 32.5060 34.2220 142° Southeast 347 399 12,000 -1,080 Descending FlightAware
11:24AM 32.4460 34.2750 143° Southeast 340 391 11,300 -1,260 Descending FlightAware
11:25AM 32.3960 34.3190 143° Southeast 313 360 10,100 -960 Descending FlightAware
11:25AM 32.3560 34.3560 142° Southeast 308 354 10,100  Level FlightAware
11:26AM 32.3200 34.3890 142° Southeast 308 354 10,100  Level FlightAware
11:26AM 32.2860 34.4210 141° Southeast 308 354 10,100  Level FlightAware
11:29AM 32.1013 34.6968 115° Southeast  Level FlightAware Approximate
11:30AM 32.0191 34.8349 125° Southeast  Level FlightAware Approximate
11:31AM 32.0000 34.8667 125° Southeast  Level FlightAware Approximate
11:32AM 32.0095 34.8769 125° Southeast  Level Estimated
11:33AM 32.0095 34.8769 125° Southeast  Level Estimated
11:34AM 32.0095 34.8769 125° Southeast  Level Estimated
11:35AM 32.0095 34.8769 125° Southeast  Level Estimated
11:36AM 32.0095 34.8769 125° Southeast  Level Estimated
11:37AM 32.0095 34.8769 125° Southeast  Level Estimated
11:38AM 32.0095 34.8769 125° Southeast  Level Estimated